sensor_id;sensor_type;location;lat;lon;timestamp;temperature;humidity
69418;DHT22;56610;48.872;2.400;2023-06-24T00:01:23;26.20;99.90
69418;DHT22;56610;48.872;2.400;2023-06-24T00:03:49;26.20;99.90
69418;DHT22;56610;48.872;2.400;2023-06-24T00:06:21;26.20;99.90
69418;DHT22;56610;48.872;2.400;2023-06-24T00:08:48;26.20;99.90
69418;DHT22;56610;48.872;2.400;2023-06-24T00:11:13;26.10;99.90
69418;DHT22;56610;48.872;2.400;2023-06-24T00:13:39;26.10;99.90
69418;DHT22;56610;48.872;2.400;2023-06-24T00:16:05;26.10;99.90
69418;DHT22;56610;48.872;2.400;2023-06-24T00:18:35;26.10;99.90
69418;DHT22;56610;48.872;2.400;2023-06-24T00:21:01;26.00;99.90
69418;DHT22;56610;48.872;2.400;2023-06-24T00:23:27;25.90;99.90
69418;DHT22;56610;48.872;2.400;2023-06-24T00:25:53;25.90;99.90
69418;DHT22;56610;48.872;2.400;2023-06-24T00:28:19;25.90;99.90
69418;DHT22;56610;48.872;2.400;2023-06-24T00:30:46;25.90;99.90
69418;DHT22;56610;48.872;2.400;2023-06-24T00:33:11;25.80;99.90
69418;DHT22;56610;48.872;2.400;2023-06-24T00:35:38;25.80;99.90
69418;DHT22;56610;48.872;2.400;2023-06-24T00:38:04;25.80;99.90
69418;DHT22;56610;48.872;2.400;2023-06-24T00:40:29;25.80;99.90
69418;DHT22;56610;48.872;2.400;2023-06-24T00:42:55;25.80;99.90
69418;DHT22;56610;48.872;2.400;2023-06-24T00:45:21;25.80;99.90
69418;DHT22;56610;48.872;2.400;2023-06-24T00:47:47;25.70;99.90
69418;DHT22;56610;48.872;2.400;2023-06-24T00:50:13;25.70;99.90
69418;DHT22;56610;48.872;2.400;2023-06-24T00:52:39;25.80;99.90
69418;DHT22;56610;48.872;2.400;2023-06-24T00:55:10;25.70;99.90
69418;DHT22;56610;48.872;2.400;2023-06-24T00:57:38;25.70;99.90
69418;DHT22;56610;48.872;2.400;2023-06-24T01:00:04;25.70;99.90
69418;DHT22;56610;48.872;2.400;2023-06-24T01:02:34;25.60;99.90
69418;DHT22;56610;48.872;2.400;2023-06-24T01:05:03;25.60;99.90
69418;DHT22;56610;48.872;2.400;2023-06-24T01:07:29;25.60;99.90
69418;DHT22;56610;48.872;2.400;2023-06-24T01:09:55;25.50;99.90
69418;DHT22;56610;48.872;2.400;2023-06-24T01:12:20;25.50;99.90
69418;DHT22;56610;48.872;2.400;2023-06-24T01:14:46;25.50;99.90
69418;DHT22;56610;48.872;2.400;2023-06-24T01:17:12;25.40;99.90
69418;DHT22;56610;48.872;2.400;2023-06-24T01:22:19;25.40;99.90
69418;DHT22;56610;48.872;2.400;2023-06-24T01:30:17;25.20;99.90
69418;DHT22;56610;48.872;2.400;2023-06-24T01:32:43;25.10;99.90
69418;DHT22;56610;48.872;2.400;2023-06-24T01:35:16;25.20;99.90
69418;DHT22;56610;48.872;2.400;2023-06-24T01:37:42;25.10;99.90
69418;DHT22;56610;48.872;2.400;2023-06-24T01:40:19;25.10;99.90
69418;DHT22;56610;48.872;2.400;2023-06-24T01:42:46;25.10;99.90
69418;DHT22;56610;48.872;2.400;2023-06-24T01:45:14;25.10;99.90
69418;DHT22;56610;48.872;2.400;2023-06-24T01:47:40;25.00;99.90
69418;DHT22;56610;48.872;2.400;2023-06-24T01:50:09;25.00;99.90
69418;DHT22;56610;48.872;2.400;2023-06-24T01:52:35;24.90;99.90
69418;DHT22;56610;48.872;2.400;2023-06-24T01:55:02;24.90;99.90
69418;DHT22;56610;48.872;2.400;2023-06-24T01:57:29;24.90;99.90
69418;DHT22;56610;48.872;2.400;2023-06-24T01:59:56;24.80;99.90
69418;DHT22;56610;48.872;2.400;2023-06-24T02:02:23;24.80;99.90
69418;DHT22;56610;48.872;2.400;2023-06-24T02:04:49;24.80;99.90
69418;DHT22;56610;48.872;2.400;2023-06-24T02:07:15;24.80;99.90
69418;DHT22;56610;48.872;2.400;2023-06-24T02:09:42;24.80;99.90
69418;DHT22;56610;48.872;2.400;2023-06-24T02:12:08;24.80;99.90
69418;DHT22;56610;48.872;2.400;2023-06-24T02:14:34;24.80;99.90
69418;DHT22;56610;48.872;2.400;2023-06-24T02:17:04;24.80;99.90
69418;DHT22;56610;48.872;2.400;2023-06-24T02:19:30;24.80;99.90
69418;DHT22;56610;48.872;2.400;2023-06-24T02:21:56;24.70;99.90
69418;DHT22;56610;48.872;2.400;2023-06-24T02:24:23;24.60;99.90
69418;DHT22;56610;48.872;2.400;2023-06-24T02:26:48;24.70;99.90
69418;DHT22;56610;48.872;2.400;2023-06-24T02:29:14;24.70;99.90
69418;DHT22;56610;48.872;2.400;2023-06-24T02:31:40;24.70;99.90
69418;DHT22;56610;48.872;2.400;2023-06-24T02:34:05;24.70;99.90
69418;DHT22;56610;48.872;2.400;2023-06-24T02:36:31;24.70;99.90
69418;DHT22;56610;48.872;2.400;2023-06-24T02:38:57;24.70;99.90
69418;DHT22;56610;48.872;2.400;2023-06-24T02:41:22;24.70;99.90
69418;DHT22;56610;48.872;2.400;2023-06-24T02:43:48;24.60;99.90
69418;DHT22;56610;48.872;2.400;2023-06-24T02:46:13;24.70;99.90
69418;DHT22;56610;48.872;2.400;2023-06-24T02:48:40;24.60;99.90
69418;DHT22;56610;48.872;2.400;2023-06-24T02:51:06;24.60;99.90
69418;DHT22;56610;48.872;2.400;2023-06-24T02:53:32;24.50;99.90
69418;DHT22;56610;48.872;2.400;2023-06-24T02:55:58;24.50;99.90
69418;DHT22;56610;48.872;2.400;2023-06-24T02:58:24;24.40;99.90
69418;DHT22;56610;48.872;2.400;2023-06-24T03:00:58;24.30;99.90
69418;DHT22;56610;48.872;2.400;2023-06-24T03:03:24;24.30;99.90
69418;DHT22;56610;48.872;2.400;2023-06-24T03:05:49;24.30;99.90
69418;DHT22;56610;48.872;2.400;2023-06-24T03:08:15;24.40;99.90
69418;DHT22;56610;48.872;2.400;2023-06-24T03:10:41;24.30;99.90
69418;DHT22;56610;48.872;2.400;2023-06-24T03:13:06;24.20;99.90
69418;DHT22;56610;48.872;2.400;2023-06-24T03:15:32;24.10;99.90
69418;DHT22;56610;48.872;2.400;2023-06-24T03:17:57;24.20;99.90
69418;DHT22;56610;48.872;2.400;2023-06-24T03:20:23;24.10;99.90
69418;DHT22;56610;48.872;2.400;2023-06-24T03:22:49;24.10;99.90
69418;DHT22;56610;48.872;2.400;2023-06-24T03:25:14;24.10;99.90
69418;DHT22;56610;48.872;2.400;2023-06-24T03:27:40;24.10;99.90
69418;DHT22;56610;48.872;2.400;2023-06-24T03:30:05;24.10;99.90
69418;DHT22;56610;48.872;2.400;2023-06-24T03:32:31;24.10;99.90
69418;DHT22;56610;48.872;2.400;2023-06-24T03:35:00;24.10;99.90
69418;DHT22;56610;48.872;2.400;2023-06-24T03:37:25;24.10;99.90
69418;DHT22;56610;48.872;2.400;2023-06-24T03:39:51;24.00;99.90
69418;DHT22;56610;48.872;2.400;2023-06-24T03:42:16;24.00;99.90
69418;DHT22;56610;48.872;2.400;2023-06-24T03:44:42;24.00;99.90
69418;DHT22;56610;48.872;2.400;2023-06-24T03:47:07;24.00;99.90
69418;DHT22;56610;48.872;2.400;2023-06-24T03:49:33;24.00;99.90
69418;DHT22;56610;48.872;2.400;2023-06-24T03:51:58;24.00;99.90
69418;DHT22;56610;48.872;2.400;2023-06-24T03:54:23;23.90;99.90
69418;DHT22;56610;48.872;2.400;2023-06-24T03:56:49;23.90;99.90
69418;DHT22;56610;48.872;2.400;2023-06-24T03:59:14;23.80;99.90
69418;DHT22;56610;48.872;2.400;2023-06-24T04:01:40;23.80;99.90
69418;DHT22;56610;48.872;2.400;2023-06-24T04:04:05;23.80;99.90
69418;DHT22;56610;48.872;2.400;2023-06-24T04:06:31;23.70;99.90
69418;DHT22;56610;48.872;2.400;2023-06-24T04:08:56;23.70;99.90
69418;DHT22;56610;48.872;2.400;2023-06-24T04:11:22;23.60;99.90
69418;DHT22;56610;48.872;2.400;2023-06-24T04:13:47;23.60;99.90
69418;DHT22;56610;48.872;2.400;2023-06-24T04:16:14;23.60;99.90
69418;DHT22;56610;48.872;2.400;2023-06-24T04:18:39;23.60;99.90
69418;DHT22;56610;48.872;2.400;2023-06-24T04:21:05;23.60;99.90
69418;DHT22;56610;48.872;2.400;2023-06-24T04:23:32;23.60;99.90
69418;DHT22;56610;48.872;2.400;2023-06-24T04:25:57;23.70;99.90
69418;DHT22;56610;48.872;2.400;2023-06-24T04:28:23;23.70;99.90
69418;DHT22;56610;48.872;2.400;2023-06-24T04:30:48;23.70;99.90
69418;DHT22;56610;48.872;2.400;2023-06-24T04:33:14;23.70;99.90
69418;DHT22;56610;48.872;2.400;2023-06-24T04:35:39;23.70;99.90
69418;DHT22;56610;48.872;2.400;2023-06-24T04:38:05;23.80;99.90
69418;DHT22;56610;48.872;2.400;2023-06-24T04:40:30;23.80;99.90
69418;DHT22;56610;48.872;2.400;2023-06-24T04:42:56;23.80;99.90
69418;DHT22;56610;48.872;2.400;2023-06-24T04:45:22;23.80;99.90
69418;DHT22;56610;48.872;2.400;2023-06-24T04:47:47;23.80;99.90
69418;DHT22;56610;48.872;2.400;2023-06-24T04:50:13;23.80;99.90
69418;DHT22;56610;48.872;2.400;2023-06-24T04:52:39;23.70;99.90
69418;DHT22;56610;48.872;2.400;2023-06-24T04:55:04;23.80;99.90
69418;DHT22;56610;48.872;2.400;2023-06-24T04:57:30;23.80;99.90
69418;DHT22;56610;48.872;2.400;2023-06-24T04:59:57;23.80;99.90
69418;DHT22;56610;48.872;2.400;2023-06-24T05:02:22;23.80;99.90
69418;DHT22;56610;48.872;2.400;2023-06-24T05:04:48;23.80;99.90
69418;DHT22;56610;48.872;2.400;2023-06-24T05:07:14;23.70;99.90
69418;DHT22;56610;48.872;2.400;2023-06-24T05:09:39;23.70;99.90
69418;DHT22;56610;48.872;2.400;2023-06-24T05:12:05;23.70;99.90
69418;DHT22;56610;48.872;2.400;2023-06-24T05:14:31;23.70;99.90
69418;DHT22;56610;48.872;2.400;2023-06-24T05:16:56;23.70;99.90
69418;DHT22;56610;48.872;2.400;2023-06-24T05:19:22;23.70;99.90
69418;DHT22;56610;48.872;2.400;2023-06-24T05:21:47;23.70;99.90
69418;DHT22;56610;48.872;2.400;2023-06-24T05:24:13;23.80;99.90
69418;DHT22;56610;48.872;2.400;2023-06-24T05:26:38;23.80;99.90
69418;DHT22;56610;48.872;2.400;2023-06-24T05:29:06;23.80;99.90
69418;DHT22;56610;48.872;2.400;2023-06-24T05:31:32;23.80;99.90
69418;DHT22;56610;48.872;2.400;2023-06-24T05:33:57;23.90;99.90
69418;DHT22;56610;48.872;2.400;2023-06-24T05:36:22;23.90;99.90
69418;DHT22;56610;48.872;2.400;2023-06-24T05:38:48;23.90;99.90
69418;DHT22;56610;48.872;2.400;2023-06-24T05:41:14;23.90;99.90
69418;DHT22;56610;48.872;2.400;2023-06-24T05:43:39;23.80;99.90
69418;DHT22;56610;48.872;2.400;2023-06-24T05:46:05;23.80;99.90
69418;DHT22;56610;48.872;2.400;2023-06-24T05:48:30;23.90;99.90
69418;DHT22;56610;48.872;2.400;2023-06-24T05:50:56;23.90;99.90
69418;DHT22;56610;48.872;2.400;2023-06-24T05:53:21;23.90;99.90
69418;DHT22;56610;48.872;2.400;2023-06-24T05:55:46;24.00;99.90
69418;DHT22;56610;48.872;2.400;2023-06-24T05:58:12;23.90;99.90
69418;DHT22;56610;48.872;2.400;2023-06-24T06:00:40;23.90;99.90
69418;DHT22;56610;48.872;2.400;2023-06-24T06:03:06;23.90;99.90
69418;DHT22;56610;48.872;2.400;2023-06-24T06:05:31;23.90;99.90
69418;DHT22;56610;48.872;2.400;2023-06-24T06:07:57;23.90;99.90
69418;DHT22;56610;48.872;2.400;2023-06-24T06:10:22;23.90;99.90
69418;DHT22;56610;48.872;2.400;2023-06-24T06:12:48;23.90;99.90
69418;DHT22;56610;48.872;2.400;2023-06-24T06:15:13;23.90;99.90
69418;DHT22;56610;48.872;2.400;2023-06-24T06:17:39;23.90;99.90
69418;DHT22;56610;48.872;2.400;2023-06-24T06:20:06;23.90;99.90
69418;DHT22;56610;48.872;2.400;2023-06-24T06:22:31;23.80;99.90
69418;DHT22;56610;48.872;2.400;2023-06-24T06:25:02;23.90;99.90
69418;DHT22;56610;48.872;2.400;2023-06-24T06:27:28;23.90;99.90
69418;DHT22;56610;48.872;2.400;2023-06-24T06:29:53;23.90;99.90
69418;DHT22;56610;48.872;2.400;2023-06-24T06:32:19;24.00;99.90
69418;DHT22;56610;48.872;2.400;2023-06-24T06:34:44;24.00;99.90
69418;DHT22;56610;48.872;2.400;2023-06-24T06:37:10;24.00;99.90
69418;DHT22;56610;48.872;2.400;2023-06-24T06:39:35;24.10;99.90
69418;DHT22;56610;48.872;2.400;2023-06-24T06:42:01;24.00;99.90
69418;DHT22;56610;48.872;2.400;2023-06-24T06:44:26;24.10;99.90
69418;DHT22;56610;48.872;2.400;2023-06-24T06:46:51;24.10;99.90
69418;DHT22;56610;48.872;2.400;2023-06-24T06:49:17;24.10;99.90
69418;DHT22;56610;48.872;2.400;2023-06-24T06:51:43;24.10;99.90
69418;DHT22;56610;48.872;2.400;2023-06-24T06:54:08;24.20;99.90
69418;DHT22;56610;48.872;2.400;2023-06-24T06:56:34;24.20;99.90
69418;DHT22;56610;48.872;2.400;2023-06-24T06:58:59;24.20;99.90
69418;DHT22;56610;48.872;2.400;2023-06-24T07:01:25;24.20;99.90
69418;DHT22;56610;48.872;2.400;2023-06-24T07:03:50;24.20;99.90
69418;DHT22;56610;48.872;2.400;2023-06-24T07:06:17;24.30;99.90
69418;DHT22;56610;48.872;2.400;2023-06-24T07:08:43;24.30;99.90
69418;DHT22;56610;48.872;2.400;2023-06-24T07:11:08;24.30;99.90
69418;DHT22;56610;48.872;2.400;2023-06-24T07:13:34;24.40;99.90
69418;DHT22;56610;48.872;2.400;2023-06-24T07:15:59;24.40;99.90
69418;DHT22;56610;48.872;2.400;2023-06-24T07:18:25;24.30;99.90
69418;DHT22;56610;48.872;2.400;2023-06-24T07:20:55;24.40;99.90
69418;DHT22;56610;48.872;2.400;2023-06-24T07:23:21;24.40;99.90
69418;DHT22;56610;48.872;2.400;2023-06-24T07:25:46;24.40;99.90
69418;DHT22;56610;48.872;2.400;2023-06-24T07:28:12;24.50;99.90
69418;DHT22;56610;48.872;2.400;2023-06-24T07:30:37;24.50;99.90
69418;DHT22;56610;48.872;2.400;2023-06-24T07:33:02;24.60;99.90
69418;DHT22;56610;48.872;2.400;2023-06-24T07:35:31;24.60;99.90
69418;DHT22;56610;48.872;2.400;2023-06-24T07:37:57;24.70;99.90
69418;DHT22;56610;48.872;2.400;2023-06-24T07:40:22;24.70;99.90
69418;DHT22;56610;48.872;2.400;2023-06-24T07:42:48;24.70;99.90
69418;DHT22;56610;48.872;2.400;2023-06-24T07:45:13;24.70;99.90
69418;DHT22;56610;48.872;2.400;2023-06-24T07:47:39;24.80;99.90
69418;DHT22;56610;48.872;2.400;2023-06-24T07:50:04;24.80;99.90
69418;DHT22;56610;48.872;2.400;2023-06-24T07:52:31;24.80;99.90
69418;DHT22;56610;48.872;2.400;2023-06-24T07:54:57;24.90;99.90
69418;DHT22;56610;48.872;2.400;2023-06-24T07:57:22;24.80;99.90
69418;DHT22;56610;48.872;2.400;2023-06-24T07:59:50;24.90;99.90
69418;DHT22;56610;48.872;2.400;2023-06-24T08:02:20;24.90;99.90
69418;DHT22;56610;48.872;2.400;2023-06-24T08:04:45;24.90;99.90
69418;DHT22;56610;48.872;2.400;2023-06-24T08:07:11;25.00;99.90
69418;DHT22;56610;48.872;2.400;2023-06-24T08:09:36;24.90;99.90
69418;DHT22;56610;48.872;2.400;2023-06-24T08:12:05;24.90;99.90
69418;DHT22;56610;48.872;2.400;2023-06-24T08:14:30;25.00;99.90
69418;DHT22;56610;48.872;2.400;2023-06-24T08:16:56;25.00;99.90
69418;DHT22;56610;48.872;2.400;2023-06-24T08:19:21;25.10;99.90
69418;DHT22;56610;48.872;2.400;2023-06-24T08:21:47;25.10;99.90
69418;DHT22;56610;48.872;2.400;2023-06-24T08:24:12;25.10;99.90
69418;DHT22;56610;48.872;2.400;2023-06-24T08:26:38;25.00;99.90
69418;DHT22;56610;48.872;2.400;2023-06-24T08:29:03;25.10;99.90
69418;DHT22;56610;48.872;2.400;2023-06-24T08:31:29;25.10;99.90
69418;DHT22;56610;48.872;2.400;2023-06-24T08:33:54;25.20;99.90
69418;DHT22;56610;48.872;2.400;2023-06-24T08:36:25;25.30;99.90
69418;DHT22;56610;48.872;2.400;2023-06-24T08:38:51;25.20;99.90
69418;DHT22;56610;48.872;2.400;2023-06-24T08:41:16;25.30;99.90
69418;DHT22;56610;48.872;2.400;2023-06-24T08:43:42;25.30;99.90
69418;DHT22;56610;48.872;2.400;2023-06-24T08:46:08;25.30;99.90
69418;DHT22;56610;48.872;2.400;2023-06-24T08:48:33;25.40;99.90
69418;DHT22;56610;48.872;2.400;2023-06-24T08:51:05;25.30;99.90
69418;DHT22;56610;48.872;2.400;2023-06-24T08:53:32;25.40;99.90
69418;DHT22;56610;48.872;2.400;2023-06-24T08:55:58;25.40;99.90
69418;DHT22;56610;48.872;2.400;2023-06-24T08:58:23;25.50;99.90
69418;DHT22;56610;48.872;2.400;2023-06-24T09:00:49;25.60;99.90
69418;DHT22;56610;48.872;2.400;2023-06-24T09:03:14;25.70;99.90
69418;DHT22;56610;48.872;2.400;2023-06-24T09:05:40;25.60;99.90
69418;DHT22;56610;48.872;2.400;2023-06-24T09:08:05;25.60;99.90
69418;DHT22;56610;48.872;2.400;2023-06-24T09:10:34;25.60;99.90
69418;DHT22;56610;48.872;2.400;2023-06-24T09:13:01;25.60;99.90
69418;DHT22;56610;48.872;2.400;2023-06-24T09:15:30;25.70;99.90
69418;DHT22;56610;48.872;2.400;2023-06-24T09:17:56;25.90;99.90
69418;DHT22;56610;48.872;2.400;2023-06-24T09:20:22;26.20;99.90
69418;DHT22;56610;48.872;2.400;2023-06-24T09:22:48;26.40;99.90
69418;DHT22;56610;48.872;2.400;2023-06-24T09:25:17;26.70;99.90
69418;DHT22;56610;48.872;2.400;2023-06-24T09:27:47;27.00;99.90
